sensor_id;sensor_type;location;lat;lon;timestamp;P1;durP1;ratioP1;P2;durP2;ratioP2
68608;SDS011;55581;46.718;7.690;2022-09-21T00:00:40;4.10;;;0.82;;
68608;SDS011;55581;46.718;7.690;2022-09-21T00:03:09;3.07;;;0.93;;
68608;SDS011;55581;46.718;7.690;2022-09-21T00:05:38;4.18;;;0.63;;
68608;SDS011;55581;46.718;7.690;2022-09-21T00:08:04;4.40;;;0.90;;
68608;SDS011;55581;46.718;7.690;2022-09-21T00:10:30;3.55;;;0.90;;
68608;SDS011;55581;46.718;7.690;2022-09-21T00:12:57;5.03;;;1.90;;
68608;SDS011;55581;46.718;7.690;2022-09-21T00:15:27;3.15;;;0.43;;
68608;SDS011;55581;46.718;7.690;2022-09-21T00:17:53;2.72;;;0.70;;
68608;SDS011;55581;46.718;7.690;2022-09-21T00:20:20;3.40;;;1.00;;
68608;SDS011;55581;46.718;7.690;2022-09-21T00:22:46;4.97;;;0.70;;
68608;SDS011;55581;46.718;7.690;2022-09-21T00:25:11;6.82;;;1.00;;
68608;SDS011;55581;46.718;7.690;2022-09-21T00:27:37;5.97;;;0.80;;
68608;SDS011;55581;46.718;7.690;2022-09-21T00:30:03;5.23;;;0.63;;
68608;SDS011;55581;46.718;7.690;2022-09-21T00:32:31;3.83;;;0.75;;
68608;SDS011;55581;46.718;7.690;2022-09-21T00:34:57;3.75;;;0.82;;
68608;SDS011;55581;46.718;7.690;2022-09-21T00:37:25;4.50;;;0.87;;
68608;SDS011;55581;46.718;7.690;2022-09-21T00:39:51;5.50;;;0.80;;
68608;SDS011;55581;46.718;7.690;2022-09-21T00:42:21;3.78;;;0.70;;
68608;SDS011;55581;46.718;7.690;2022-09-21T00:44:53;4.45;;;1.10;;
68608;SDS011;55581;46.718;7.690;2022-09-21T00:47:27;2.80;;;0.53;;
68608;SDS011;55581;46.718;7.690;2022-09-21T00:49:58;4.05;;;0.90;;
68608;SDS011;55581;46.718;7.690;2022-09-21T00:52:27;4.10;;;1.10;;
68608;SDS011;55581;46.718;7.690;2022-09-21T00:55:07;3.85;;;0.93;;
68608;SDS011;55581;46.718;7.690;2022-09-21T00:57:37;3.50;;;0.88;;
68608;SDS011;55581;46.718;7.690;2022-09-21T01:00:04;3.87;;;0.80;;
68608;SDS011;55581;46.718;7.690;2022-09-21T01:02:35;5.05;;;1.00;;
68608;SDS011;55581;46.718;7.690;2022-09-21T01:05:02;5.07;;;0.77;;
68608;SDS011;55581;46.718;7.690;2022-09-21T01:07:30;3.22;;;0.70;;
68608;SDS011;55581;46.718;7.690;2022-09-21T01:10:02;3.42;;;0.90;;
68608;SDS011;55581;46.718;7.690;2022-09-21T01:31:37;4.70;;;0.80;;
68608;SDS011;55581;46.718;7.690;2022-09-21T01:34:09;4.07;;;0.95;;
68608;SDS011;55581;46.718;7.690;2022-09-21T01:36:45;5.40;;;0.98;;
68608;SDS011;55581;46.718;7.690;2022-09-21T01:39:13;3.27;;;0.90;;
68608;SDS011;55581;46.718;7.690;2022-09-21T01:41:43;4.53;;;1.10;;
68608;SDS011;55581;46.718;7.690;2022-09-21T01:44:14;4.43;;;0.88;;
68608;SDS011;55581;46.718;7.690;2022-09-21T01:46:45;5.40;;;0.80;;
68608;SDS011;55581;46.718;7.690;2022-09-21T01:49:14;4.90;;;1.23;;
68608;SDS011;55581;46.718;7.690;2022-09-21T01:51:47;5.37;;;0.83;;
68608;SDS011;55581;46.718;7.690;2022-09-21T01:54:18;4.20;;;0.90;;
68608;SDS011;55581;46.718;7.690;2022-09-21T01:57:10;6.75;;;1.35;;
68608;SDS011;55581;46.718;7.690;2022-09-21T02:02:14;7.07;;;0.83;;
68608;SDS011;55581;46.718;7.690;2022-09-21T02:04:53;3.85;;;1.10;;
68608;SDS011;55581;46.718;7.690;2022-09-21T02:07:19;3.85;;;1.10;;
68608;SDS011;55581;46.718;7.690;2022-09-21T02:09:45;3.57;;;1.20;;
68608;SDS011;55581;46.718;7.690;2022-09-21T02:12:11;2.78;;;0.90;;
68608;SDS011;55581;46.718;7.690;2022-09-21T02:14:37;5.40;;;1.00;;
68608;SDS011;55581;46.718;7.690;2022-09-21T02:19:48;8.25;;;1.00;;
68608;SDS011;55581;46.718;7.690;2022-09-21T02:25:06;3.60;;;0.90;;
68608;SDS011;55581;46.718;7.690;2022-09-21T02:27:40;6.47;;;1.17;;
68608;SDS011;55581;46.718;7.690;2022-09-21T02:30:43;3.10;;;0.90;;
68608;SDS011;55581;46.718;7.690;2022-09-21T02:33:18;6.88;;;1.42;;
68608;SDS011;55581;46.718;7.690;2022-09-21T02:35:52;4.30;;;1.10;;
68608;SDS011;55581;46.718;7.690;2022-09-21T02:41:06;3.83;;;0.50;;
68608;SDS011;55581;46.718;7.690;2022-09-21T02:49:15;4.00;;;0.90;;
68608;SDS011;55581;46.718;7.690;2022-09-21T02:51:49;12.60;;;1.88;;
68608;SDS011;55581;46.718;7.690;2022-09-21T02:54:23;4.05;;;1.00;;
68608;SDS011;55581;46.718;7.690;2022-09-21T02:56:52;4.57;;;1.17;;
68608;SDS011;55581;46.718;7.690;2022-09-21T02:59:19;4.10;;;0.93;;
68608;SDS011;55581;46.718;7.690;2022-09-21T03:01:48;7.47;;;1.00;;
68608;SDS011;55581;46.718;7.690;2022-09-21T03:04:17;6.55;;;1.77;;
68608;SDS011;55581;46.718;7.690;2022-09-21T03:06:43;4.10;;;1.00;;
68608;SDS011;55581;46.718;7.690;2022-09-21T03:09:08;5.27;;;1.27;;
68608;SDS011;55581;46.718;7.690;2022-09-21T03:11:34;5.55;;;1.20;;
68608;SDS011;55581;46.718;7.690;2022-09-21T03:14:03;4.05;;;1.25;;
68608;SDS011;55581;46.718;7.690;2022-09-21T03:16:35;3.90;;;1.13;;
68608;SDS011;55581;46.718;7.690;2022-09-21T03:19:03;5.00;;;1.40;;
68608;SDS011;55581;46.718;7.690;2022-09-21T03:21:29;4.53;;;1.87;;
68608;SDS011;55581;46.718;7.690;2022-09-21T03:23:55;3.58;;;1.10;;
68608;SDS011;55581;46.718;7.690;2022-09-21T03:26:20;4.60;;;1.10;;
68608;SDS011;55581;46.718;7.690;2022-09-21T03:28:49;3.25;;;1.15;;
68608;SDS011;55581;46.718;7.690;2022-09-21T03:31:14;6.05;;;1.80;;
68608;SDS011;55581;46.718;7.690;2022-09-21T03:33:40;4.53;;;1.30;;
68608;SDS011;55581;46.718;7.690;2022-09-21T03:36:06;5.13;;;1.48;;
68608;SDS011;55581;46.718;7.690;2022-09-21T03:38:32;5.20;;;1.13;;
68608;SDS011;55581;46.718;7.690;2022-09-21T03:40:58;3.50;;;1.30;;
68608;SDS011;55581;46.718;7.690;2022-09-21T03:43:25;5.43;;;1.20;;
68608;SDS011;55581;46.718;7.690;2022-09-21T03:45:52;3.88;;;1.00;;
68608;SDS011;55581;46.718;7.690;2022-09-21T03:48:17;5.43;;;1.43;;
68608;SDS011;55581;46.718;7.690;2022-09-21T03:50:43;6.35;;;1.50;;
68608;SDS011;55581;46.718;7.690;2022-09-21T03:53:09;4.63;;;1.35;;
68608;SDS011;55581;46.718;7.690;2022-09-21T03:55:35;5.53;;;1.30;;
68608;SDS011;55581;46.718;7.690;2022-09-21T03:58:01;4.55;;;1.27;;
68608;SDS011;55581;46.718;7.690;2022-09-21T04:00:27;4.40;;;1.17;;
68608;SDS011;55581;46.718;7.690;2022-09-21T04:02:56;4.35;;;1.65;;
68608;SDS011;55581;46.718;7.690;2022-09-21T04:05:22;6.23;;;1.13;;
68608;SDS011;55581;46.718;7.690;2022-09-21T04:07:50;4.47;;;1.15;;
68608;SDS011;55581;46.718;7.690;2022-09-21T04:10:16;3.78;;;1.20;;
68608;SDS011;55581;46.718;7.690;2022-09-21T04:12:44;5.70;;;1.40;;
68608;SDS011;55581;46.718;7.690;2022-09-21T04:15:14;4.07;;;1.20;;
68608;SDS011;55581;46.718;7.690;2022-09-21T04:17:43;5.07;;;1.95;;
68608;SDS011;55581;46.718;7.690;2022-09-21T04:20:09;4.95;;;1.52;;
68608;SDS011;55581;46.718;7.690;2022-09-21T04:22:35;5.23;;;1.40;;
68608;SDS011;55581;46.718;7.690;2022-09-21T04:25:01;4.82;;;1.58;;
68608;SDS011;55581;46.718;7.690;2022-09-21T04:27:28;4.10;;;1.70;;
68608;SDS011;55581;46.718;7.690;2022-09-21T04:29:53;8.13;;;1.43;;
68608;SDS011;55581;46.718;7.690;2022-09-21T04:32:21;4.00;;;1.30;;
68608;SDS011;55581;46.718;7.690;2022-09-21T04:34:46;5.13;;;1.73;;
68608;SDS011;55581;46.718;7.690;2022-09-21T04:37:12;5.20;;;1.50;;
68608;SDS011;55581;46.718;7.690;2022-09-21T04:39:37;5.07;;;1.65;;
68608;SDS011;55581;46.718;7.690;2022-09-21T04:42:03;6.83;;;1.93;;
68608;SDS011;55581;46.718;7.690;2022-09-21T04:44:30;6.32;;;1.38;;
68608;SDS011;55581;46.718;7.690;2022-09-21T04:46:56;4.43;;;1.80;;
68608;SDS011;55581;46.718;7.690;2022-09-21T04:49:22;5.88;;;1.90;;
68608;SDS011;55581;46.718;7.690;2022-09-21T04:51:47;8.33;;;2.37;;
68608;SDS011;55581;46.718;7.690;2022-09-21T04:54:15;6.47;;;2.20;;
68608;SDS011;55581;46.718;7.690;2022-09-21T04:56:40;6.63;;;1.98;;
68608;SDS011;55581;46.718;7.690;2022-09-21T04:59:06;4.23;;;1.43;;
68608;SDS011;55581;46.718;7.690;2022-09-21T05:01:35;5.15;;;1.52;;
68608;SDS011;55581;46.718;7.690;2022-09-21T05:04:03;4.07;;;1.30;;
68608;SDS011;55581;46.718;7.690;2022-09-21T05:06:29;5.53;;;1.75;;
68608;SDS011;55581;46.718;7.690;2022-09-21T05:08:58;3.67;;;1.50;;
68608;SDS011;55581;46.718;7.690;2022-09-21T05:11:42;5.80;;;2.20;;
68608;SDS011;55581;46.718;7.690;2022-09-21T05:14:11;4.55;;;1.55;;
68608;SDS011;55581;46.718;7.690;2022-09-21T05:16:36;7.13;;;2.07;;
68608;SDS011;55581;46.718;7.690;2022-09-21T05:19:02;4.10;;;1.73;;
68608;SDS011;55581;46.718;7.690;2022-09-21T05:21:27;6.38;;;2.20;;
68608;SDS011;55581;46.718;7.690;2022-09-21T05:23:55;6.78;;;1.90;;
68608;SDS011;55581;46.718;7.690;2022-09-21T05:26:21;5.80;;;2.10;;
68608;SDS011;55581;46.718;7.690;2022-09-21T05:28:47;6.53;;;2.10;;
68608;SDS011;55581;46.718;7.690;2022-09-21T05:34:39;6.15;;;1.88;;
68608;SDS011;55581;46.718;7.690;2022-09-21T05:36:48;5.72;;;2.20;;
68608;SDS011;55581;46.718;7.690;2022-09-21T05:39:19;5.50;;;2.30;;
68608;SDS011;55581;46.718;7.690;2022-09-21T05:41:44;6.53;;;2.13;;
68608;SDS011;55581;46.718;7.690;2022-09-21T05:44:11;5.75;;;2.38;;
68608;SDS011;55581;46.718;7.690;2022-09-21T05:46:39;6.00;;;2.05;;
68608;SDS011;55581;46.718;7.690;2022-09-21T05:49:13;5.90;;;2.10;;
68608;SDS011;55581;46.718;7.690;2022-09-21T06:00:24;5.07;;;1.90;;
68608;SDS011;55581;46.718;7.690;2022-09-21T06:05:35;5.53;;;2.08;;
68608;SDS011;55581;46.718;7.690;2022-09-21T06:08:00;5.45;;;2.30;;
68608;SDS011;55581;46.718;7.690;2022-09-21T06:10:26;8.93;;;1.97;;
68608;SDS011;55581;46.718;7.690;2022-09-21T06:12:57;7.75;;;2.03;;
68608;SDS011;55581;46.718;7.690;2022-09-21T06:15:22;7.20;;;1.93;;
68608;SDS011;55581;46.718;7.690;2022-09-21T06:17:48;8.57;;;2.30;;
68608;SDS011;55581;46.718;7.690;2022-09-21T06:20:13;5.57;;;2.00;;
68608;SDS011;55581;46.718;7.690;2022-09-21T06:22:39;6.60;;;2.10;;
68608;SDS011;55581;46.718;7.690;2022-09-21T06:25:04;5.67;;;2.20;;
68608;SDS011;55581;46.718;7.690;2022-09-21T06:27:30;5.78;;;1.85;;
68608;SDS011;55581;46.718;7.690;2022-09-21T06:29:56;7.67;;;2.30;;
68608;SDS011;55581;46.718;7.690;2022-09-21T06:32:21;4.57;;;1.93;;
68608;SDS011;55581;46.718;7.690;2022-09-21T06:34:47;5.40;;;1.90;;
68608;SDS011;55581;46.718;7.690;2022-09-21T06:37:13;5.22;;;1.80;;
68608;SDS011;55581;46.718;7.690;2022-09-21T06:39:39;7.87;;;2.33;;
68608;SDS011;55581;46.718;7.690;2022-09-21T06:42:05;8.25;;;2.00;;
68608;SDS011;55581;46.718;7.690;2022-09-21T06:44:30;5.50;;;2.57;;
68608;SDS011;55581;46.718;7.690;2022-09-21T06:46:56;7.57;;;2.63;;
68608;SDS011;55581;46.718;7.690;2022-09-21T06:49:21;5.37;;;2.17;;
68608;SDS011;55581;46.718;7.690;2022-09-21T06:51:51;6.13;;;2.10;;
68608;SDS011;55581;46.718;7.690;2022-09-21T06:54:17;5.53;;;2.03;;
68608;SDS011;55581;46.718;7.690;2022-09-21T06:56:43;5.57;;;1.80;;
68608;SDS011;55581;46.718;7.690;2022-09-21T06:59:10;9.45;;;2.40;;
68608;SDS011;55581;46.718;7.690;2022-09-21T07:01:37;6.63;;;2.40;;
68608;SDS011;55581;46.718;7.690;2022-09-21T07:04:03;8.00;;;2.17;;
68608;SDS011;55581;46.718;7.690;2022-09-21T07:06:28;7.13;;;2.45;;
68608;SDS011;55581;46.718;7.690;2022-09-21T07:08:56;5.57;;;2.93;;
68608;SDS011;55581;46.718;7.690;2022-09-21T07:11:22;9.90;;;2.72;;
68608;SDS011;55581;46.718;7.690;2022-09-21T07:13:48;13.00;;;1.90;;
68608;SDS011;55581;46.718;7.690;2022-09-21T07:16:15;6.37;;;2.40;;
68608;SDS011;55581;46.718;7.690;2022-09-21T07:18:40;4.65;;;1.90;;
68608;SDS011;55581;46.718;7.690;2022-09-21T07:21:07;8.57;;;2.30;;
68608;SDS011;55581;46.718;7.690;2022-09-21T07:23:34;5.50;;;1.90;;
68608;SDS011;55581;46.718;7.690;2022-09-21T07:26:03;6.95;;;2.15;;
68608;SDS011;55581;46.718;7.690;2022-09-21T07:28:31;7.10;;;2.40;;
68608;SDS011;55581;46.718;7.690;2022-09-21T07:31:04;9.20;;;2.80;;
68608;SDS011;55581;46.718;7.690;2022-09-21T07:33:31;6.22;;;2.70;;
68608;SDS011;55581;46.718;7.690;2022-09-21T07:35:57;6.57;;;1.97;;
68608;SDS011;55581;46.718;7.690;2022-09-21T07:38:24;5.68;;;2.53;;
68608;SDS011;55581;46.718;7.690;2022-09-21T07:40:51;5.40;;;2.30;;
68608;SDS011;55581;46.718;7.690;2022-09-21T07:43:16;7.07;;;2.10;;
68608;SDS011;55581;46.718;7.690;2022-09-21T07:45:42;7.00;;;2.30;;
68608;SDS011;55581;46.718;7.690;2022-09-21T07:48:08;9.35;;;3.00;;
68608;SDS011;55581;46.718;7.690;2022-09-21T07:50:35;7.90;;;2.60;;
68608;SDS011;55581;46.718;7.690;2022-09-21T07:53:01;5.10;;;2.30;;
68608;SDS011;55581;46.718;7.690;2022-09-21T07:55:27;12.73;;;2.25;;
68608;SDS011;55581;46.718;7.690;2022-09-21T07:57:53;6.65;;;2.35;;
68608;SDS011;55581;46.718;7.690;2022-09-21T08:00:40;7.90;;;2.83;;
68608;SDS011;55581;46.718;7.690;2022-09-21T08:03:05;8.68;;;2.17;;
68608;SDS011;55581;46.718;7.690;2022-09-21T08:05:33;6.17;;;2.80;;
68608;SDS011;55581;46.718;7.690;2022-09-21T08:07:58;5.88;;;2.25;;
68608;SDS011;55581;46.718;7.690;2022-09-21T08:10:24;4.93;;;2.20;;
68608;SDS011;55581;46.718;7.690;2022-09-21T08:12:54;8.80;;;2.05;;
68608;SDS011;55581;46.718;7.690;2022-09-21T08:15:20;7.82;;;2.72;;
68608;SDS011;55581;46.718;7.690;2022-09-21T08:17:47;8.93;;;2.30;;
68608;SDS011;55581;46.718;7.690;2022-09-21T08:20:15;5.40;;;2.15;;
68608;SDS011;55581;46.718;7.690;2022-09-21T08:22:41;5.37;;;2.43;;
68608;SDS011;55581;46.718;7.690;2022-09-21T08:25:06;7.10;;;2.23;;
68608;SDS011;55581;46.718;7.690;2022-09-21T08:27:32;5.67;;;2.03;;
68608;SDS011;55581;46.718;7.690;2022-09-21T08:29:57;7.20;;;2.50;;
68608;SDS011;55581;46.718;7.690;2022-09-21T08:32:22;6.68;;;2.47;;
68608;SDS011;55581;46.718;7.690;2022-09-21T08:34:48;5.77;;;2.17;;
68608;SDS011;55581;46.718;7.690;2022-09-21T08:37:14;7.33;;;2.40;;
68608;SDS011;55581;46.718;7.690;2022-09-21T08:39:43;7.05;;;2.33;;
68608;SDS011;55581;46.718;7.690;2022-09-21T08:44:56;6.13;;;2.45;;
68608;SDS011;55581;46.718;7.690;2022-09-21T08:47:59;9.10;;;2.28;;
68608;SDS011;55581;46.718;7.690;2022-09-21T08:52:46;5.63;;;2.43;;
68608;SDS011;55581;46.718;7.690;2022-09-21T08:55:18;6.03;;;2.10;;
68608;SDS011;55581;46.718;7.690;2022-09-21T08:57:44;5.05;;;2.15;;
68608;SDS011;55581;46.718;7.690;2022-09-21T09:00:16;5.33;;;2.23;;
68608;SDS011;55581;46.718;7.690;2022-09-21T09:02:48;7.40;;;1.92;;
68608;SDS011;55581;46.718;7.690;2022-09-21T09:10:57;7.18;;;2.10;;
68608;SDS011;55581;46.718;7.690;2022-09-21T09:21:40;4.97;;;2.20;;
68608;SDS011;55581;46.718;7.690;2022-09-21T09:24:31;7.50;;;2.63;;
68608;SDS011;55581;46.718;7.690;2022-09-21T09:27:04;6.20;;;2.33;;
68608;SDS011;55581;46.718;7.690;2022-09-21T09:32:19;5.97;;;2.33;;
68608;SDS011;55581;46.718;7.690;2022-09-21T09:35:15;7.15;;;2.95;;
68608;SDS011;55581;46.718;7.690;2022-09-21T09:46:41;5.65;;;2.70;;
68608;SDS011;55581;46.718;7.690;2022-09-21T09:49:36;7.22;;;2.70;;
68608;SDS011;55581;46.718;7.690;2022-09-21T09:52:22;4.50;;;2.50;;
68608;SDS011;55581;46.718;7.690;2022-09-21T09:54:47;7.13;;;2.67;;
68608;SDS011;55581;46.718;7.690;2022-09-21T09:57:13;6.72;;;2.90;;
68608;SDS011;55581;46.718;7.690;2022-09-21T09:59:47;5.50;;;3.03;;
68608;SDS011;55581;46.718;7.690;2022-09-21T10:02:20;6.70;;;2.90;;
68608;SDS011;55581;46.718;7.690;2022-09-21T10:04:59;5.55;;;2.92;;
68608;SDS011;55581;46.718;7.690;2022-09-21T10:10:57;7.72;;;2.90;;
68608;SDS011;55581;46.718;7.690;2022-09-21T10:13:11;7.95;;;2.60;;
68608;SDS011;55581;46.718;7.690;2022-09-21T10:16:03;6.13;;;3.20;;
68608;SDS011;55581;46.718;7.690;2022-09-21T10:21:26;5.72;;;2.60;;
68608;SDS011;55581;46.718;7.690;2022-09-21T10:26:53;8.32;;;2.53;;
68608;SDS011;55581;46.718;7.690;2022-09-21T10:29:30;6.07;;;3.23;;
68608;SDS011;55581;46.718;7.690;2022-09-21T10:34:36;5.85;;;2.22;;
68608;SDS011;55581;46.718;7.690;2022-09-21T10:42:43;4.77;;;2.30;;
68608;SDS011;55581;46.718;7.690;2022-09-21T10:45:33;5.00;;;2.63;;
68608;SDS011;55581;46.718;7.690;2022-09-21T10:48:14;9.18;;;3.55;;
68608;SDS011;55581;46.718;7.690;2022-09-21T10:50:45;6.22;;;3.17;;
68608;SDS011;55581;46.718;7.690;2022-09-21T10:53:24;6.35;;;2.78;;
68608;SDS011;55581;46.718;7.690;2022-09-21T10:58:20;6.32;;;2.78;;
68608;SDS011;55581;46.718;7.690;2022-09-21T11:00:47;6.40;;;2.90;;
68608;SDS011;55581;46.718;7.690;2022-09-21T11:06:08;5.88;;;2.80;;
68608;SDS011;55581;46.718;7.690;2022-09-21T11:11:13;6.77;;;2.80;;
68608;SDS011;55581;46.718;7.690;2022-09-21T11:19:59;9.25;;;3.00;;
68608;SDS011;55581;46.718;7.690;2022-09-21T11:22:39;5.80;;;2.58;;
68608;SDS011;55581;46.718;7.690;2022-09-21T11:28:12;8.25;;;2.80;;
68608;SDS011;55581;46.718;7.690;2022-09-21T11:36:45;5.75;;;2.55;;
68608;SDS011;55581;46.718;7.690;2022-09-21T11:44:59;5.85;;;2.42;;
68608;SDS011;55581;46.718;7.690;2022-09-21T11:50:23;7.10;;;2.72;;
68608;SDS011;55581;46.718;7.690;2022-09-21T11:56:23;6.47;;;2.58;;
68608;SDS011;55581;46.718;7.690;2022-09-21T12:02:03;6.20;;;2.22;;
68608;SDS011;55581;46.718;7.690;2022-09-21T12:18:26;5.80;;;3.17;;
68608;SDS011;55581;46.718;7.690;2022-09-21T12:23:58;6.13;;;3.03;;
68608;SDS011;55581;46.718;7.690;2022-09-21T12:27:15;5.88;;;2.92;;
68608;SDS011;55581;46.718;7.690;2022-09-21T12:32:06;6.43;;;2.75;;
68608;SDS011;55581;46.718;7.690;2022-09-21T12:34:41;7.47;;;2.80;;
68608;SDS011;55581;46.718;7.690;2022-09-21T12:40:03;8.25;;;2.90;;
68608;SDS011;55581;46.718;7.690;2022-09-21T12:43:10;7.53;;;2.70;;
68608;SDS011;55581;46.718;7.690;2022-09-21T12:51:02;5.47;;;2.50;;
68608;SDS011;55581;46.718;7.690;2022-09-21T12:53:30;5.28;;;2.78;;
68608;SDS011;55581;46.718;7.690;2022-09-21T13:01:32;5.17;;;2.57;;
68608;SDS011;55581;46.718;7.690;2022-09-21T13:04:16;8.60;;;2.88;;
68608;SDS011;55581;46.718;7.690;2022-09-21T13:09:54;9.10;;;3.67;;
68608;SDS011;55581;46.718;7.690;2022-09-21T13:12:39;8.80;;;3.08;;
68608;SDS011;55581;46.718;7.690;2022-09-21T13:15:15;10.20;;;3.03;;
68608;SDS011;55581;46.718;7.690;2022-09-21T13:17:55;4.90;;;2.53;;
68608;SDS011;55581;46.718;7.690;2022-09-21T13:20:23;8.27;;;2.40;;
68608;SDS011;55581;46.718;7.690;2022-09-21T13:22:50;8.80;;;3.03;;
68608;SDS011;55581;46.718;7.690;2022-09-21T13:25:26;5.90;;;2.13;;
68608;SDS011;55581;46.718;7.690;2022-09-21T13:30:44;5.22;;;2.55;;
68608;SDS011;55581;46.718;7.690;2022-09-21T13:44:01;7.47;;;2.58;;
68608;SDS011;55581;46.718;7.690;2022-09-21T13:54:32;8.07;;;1.83;;
68608;SDS011;55581;46.718;7.690;2022-09-21T14:08:05;5.45;;;1.98;;
68608;SDS011;55581;46.718;7.690;2022-09-21T14:13:30;8.40;;;2.25;;
68608;SDS011;55581;46.718;7.690;2022-09-21T14:18:53;7.80;;;2.20;;
68608;SDS011;55581;46.718;7.690;2022-09-21T14:21:19;6.57;;;2.08;;
68608;SDS011;55581;46.718;7.690;2022-09-21T14:28:58;4.53;;;2.00;;
68608;SDS011;55581;46.718;7.690;2022-09-21T14:31:33;6.33;;;2.40;;
68608;SDS011;55581;46.718;7.690;2022-09-21T14:34:03;6.60;;;2.45;;
68608;SDS011;55581;46.718;7.690;2022-09-21T14:36:43;7.72;;;2.28;;
68608;SDS011;55581;46.718;7.690;2022-09-21T14:41:50;5.32;;;1.85;;
68608;SDS011;55581;46.718;7.690;2022-09-21T14:44:24;8.17;;;2.23;;
68608;SDS011;55581;46.718;7.690;2022-09-21T14:49:52;6.20;;;2.20;;
68608;SDS011;55581;46.718;7.690;2022-09-21T14:58:16;5.47;;;2.03;;
68608;SDS011;55581;46.718;7.690;2022-09-21T15:00:39;6.95;;;2.30;;
68608;SDS011;55581;46.718;7.690;2022-09-21T15:06:00;6.55;;;1.95;;
68608;SDS011;55581;46.718;7.690;2022-09-21T15:12:17;5.53;;;2.07;;
68608;SDS011;55581;46.718;7.690;2022-09-21T15:14:46;5.85;;;2.28;;
68608;SDS011;55581;46.718;7.690;2022-09-21T15:17:29;5.65;;;2.22;;
68608;SDS011;55581;46.718;7.690;2022-09-21T15:19:58;5.78;;;2.10;;
68608;SDS011;55581;46.718;7.690;2022-09-21T15:22:25;5.85;;;1.85;;
68608;SDS011;55581;46.718;7.690;2022-09-21T15:27:17;4.30;;;1.90;;
68608;SDS011;55581;46.718;7.690;2022-09-21T15:29:48;7.17;;;2.43;;
68608;SDS011;55581;46.718;7.690;2022-09-21T15:34:55;4.70;;;2.13;;
68608;SDS011;55581;46.718;7.690;2022-09-21T15:37:27;8.90;;;1.90;;
68608;SDS011;55581;46.718;7.690;2022-09-21T15:39:59;5.38;;;2.35;;
68608;SDS011;55581;46.718;7.690;2022-09-21T15:42:26;7.40;;;2.60;;
68608;SDS011;55581;46.718;7.690;2022-09-21T15:45:14;8.88;;;2.35;;
68608;SDS011;55581;46.718;7.690;2022-09-21T15:47:39;6.63;;;2.10;;
68608;SDS011;55581;46.718;7.690;2022-09-21T15:50:15;6.05;;;2.30;;
68608;SDS011;55581;46.718;7.690;2022-09-21T15:52:49;7.20;;;1.77;;
68608;SDS011;55581;46.718;7.690;2022-09-21T15:55:26;5.35;;;2.00;;
68608;SDS011;55581;46.718;7.690;2022-09-21T15:57:54;4.80;;;2.35;;
68608;SDS011;55581;46.718;7.690;2022-09-21T16:00:31;6.32;;;1.80;;
68608;SDS011;55581;46.718;7.690;2022-09-21T16:05:51;5.27;;;2.23;;
68608;SDS011;55581;46.718;7.690;2022-09-21T16:08:24;6.18;;;2.65;;
68608;SDS011;55581;46.718;7.690;2022-09-21T16:11:11;5.80;;;2.08;;
68608;SDS011;55581;46.718;7.690;2022-09-21T16:13:43;6.00;;;2.40;;
68608;SDS011;55581;46.718;7.690;2022-09-21T16:16:29;4.72;;;1.92;;
68608;SDS011;55581;46.718;7.690;2022-09-21T16:18:55;3.90;;;1.77;;
68608;SDS011;55581;46.718;7.690;2022-09-21T16:21:35;5.75;;;1.98;;
68608;SDS011;55581;46.718;7.690;2022-09-21T16:24:21;4.50;;;1.58;;
68608;SDS011;55581;46.718;7.690;2022-09-21T16:26:57;5.90;;;1.90;;
68608;SDS011;55581;46.718;7.690;2022-09-21T16:29:26;4.90;;;1.70;;
68608;SDS011;55581;46.718;7.690;2022-09-21T16:34:42;4.47;;;2.08;;
68608;SDS011;55581;46.718;7.690;2022-09-21T16:42:15;4.80;;;1.80;;
68608;SDS011;55581;46.718;7.690;2022-09-21T16:44:41;4.60;;;1.70;;
68608;SDS011;55581;46.718;7.690;2022-09-21T16:47:13;4.97;;;1.80;;
68608;SDS011;55581;46.718;7.690;2022-09-21T16:49:49;5.15;;;1.75;;
68608;SDS011;55581;46.718;7.690;2022-09-21T16:52:23;4.57;;;1.70;;
68608;SDS011;55581;46.718;7.690;2022-09-21T16:54:49;6.38;;;2.20;;
68608;SDS011;55581;46.718;7.690;2022-09-21T16:57:18;4.60;;;1.67;;
68608;SDS011;55581;46.718;7.690;2022-09-21T16:59:44;5.60;;;1.80;;
68608;SDS011;55581;46.718;7.690;2022-09-21T17:02:10;5.40;;;1.90;;
68608;SDS011;55581;46.718;7.690;2022-09-21T17:04:38;5.22;;;1.55;;
68608;SDS011;55581;46.718;7.690;2022-09-21T17:07:03;3.80;;;1.50;;
68608;SDS011;55581;46.718;7.690;2022-09-21T17:09:30;4.90;;;2.10;;
68608;SDS011;55581;46.718;7.690;2022-09-21T17:12:02;4.10;;;1.33;;
68608;SDS011;55581;46.718;7.690;2022-09-21T17:14:32;4.82;;;1.45;;
68608;SDS011;55581;46.718;7.690;2022-09-21T17:17:03;4.32;;;1.42;;
68608;SDS011;55581;46.718;7.690;2022-09-21T17:19:32;3.20;;;1.20;;
68608;SDS011;55581;46.718;7.690;2022-09-21T17:22:01;3.72;;;1.30;;
68608;SDS011;55581;46.718;7.690;2022-09-21T17:24:33;4.03;;;1.50;;
68608;SDS011;55581;46.718;7.690;2022-09-21T17:27:00;5.50;;;1.30;;
68608;SDS011;55581;46.718;7.690;2022-09-21T17:29:26;5.37;;;1.57;;
68608;SDS011;55581;46.718;7.690;2022-09-21T17:31:54;5.30;;;1.67;;
68608;SDS011;55581;46.718;7.690;2022-09-21T17:34:22;4.28;;;1.52;;
68608;SDS011;55581;46.718;7.690;2022-09-21T17:36:49;7.72;;;2.20;;
68608;SDS011;55581;46.718;7.690;2022-09-21T17:39:14;4.83;;;1.47;;
68608;SDS011;55581;46.718;7.690;2022-09-21T17:44:41;3.90;;;1.70;;
68608;SDS011;55581;46.718;7.690;2022-09-21T17:47:26;5.07;;;1.60;;
68608;SDS011;55581;46.718;7.690;2022-09-21T17:49:54;4.88;;;1.60;;
68608;SDS011;55581;46.718;7.690;2022-09-21T17:52:41;9.60;;;1.45;;
68608;SDS011;55581;46.718;7.690;2022-09-21T17:55:26;6.10;;;1.40;;
68608;SDS011;55581;46.718;7.690;2022-09-21T18:01:02;7.03;;;2.10;;
68608;SDS011;55581;46.718;7.690;2022-09-21T18:03:32;6.05;;;2.13;;
68608;SDS011;55581;46.718;7.690;2022-09-21T18:06:05;6.40;;;1.70;;
68608;SDS011;55581;46.718;7.690;2022-09-21T18:08:34;8.27;;;1.90;;
68608;SDS011;55581;46.718;7.690;2022-09-21T18:19:00;5.70;;;1.63;;
68608;SDS011;55581;46.718;7.690;2022-09-21T18:21:45;5.22;;;1.48;;
68608;SDS011;55581;46.718;7.690;2022-09-21T18:26:51;6.32;;;1.60;;
68608;SDS011;55581;46.718;7.690;2022-09-21T18:34:42;4.47;;;1.77;;
68608;SDS011;55581;46.718;7.690;2022-09-21T18:43:13;4.38;;;1.02;;
68608;SDS011;55581;46.718;7.690;2022-09-21T18:51:24;4.20;;;1.23;;
68608;SDS011;55581;46.718;7.690;2022-09-21T18:53:55;5.25;;;1.50;;
68608;SDS011;55581;46.718;7.690;2022-09-21T18:56:25;7.32;;;2.65;;
68608;SDS011;55581;46.718;7.690;2022-09-21T18:58:55;4.68;;;1.85;;
68608;SDS011;55581;46.718;7.690;2022-09-21T19:01:22;3.20;;;1.10;;
68608;SDS011;55581;46.718;7.690;2022-09-21T19:03:48;3.83;;;1.47;;
68608;SDS011;55581;46.718;7.690;2022-09-21T19:11:51;6.80;;;1.85;;
68608;SDS011;55581;46.718;7.690;2022-09-21T19:15:03;5.25;;;1.98;;
68608;SDS011;55581;46.718;7.690;2022-09-21T19:31:47;5.20;;;1.60;;
68608;SDS011;55581;46.718;7.690;2022-09-21T19:34:16;3.58;;;1.13;;
68608;SDS011;55581;46.718;7.690;2022-09-21T19:36:43;3.72;;;1.30;;
68608;SDS011;55581;46.718;7.690;2022-09-21T19:39:10;4.43;;;1.60;;
68608;SDS011;55581;46.718;7.690;2022-09-21T19:47:06;5.35;;;1.90;;
68608;SDS011;55581;46.718;7.690;2022-09-21T19:49:53;4.00;;;1.67;;
68608;SDS011;55581;46.718;7.690;2022-09-21T19:52:28;3.27;;;1.20;;
68608;SDS011;55581;46.718;7.690;2022-09-21T19:54:58;3.80;;;1.38;;
68608;SDS011;55581;46.718;7.690;2022-09-21T19:57:42;6.32;;;1.80;;
68608;SDS011;55581;46.718;7.690;2022-09-21T20:00:29;5.95;;;1.80;;
68608;SDS011;55581;46.718;7.690;2022-09-21T20:03:03;5.10;;;1.73;;
68608;SDS011;55581;46.718;7.690;2022-09-21T20:05:36;4.40;;;1.40;;
68608;SDS011;55581;46.718;7.690;2022-09-21T20:11:00;6.63;;;1.35;;
68608;SDS011;55581;46.718;7.690;2022-09-21T20:13:55;5.57;;;1.88;;
68608;SDS011;55581;46.718;7.690;2022-09-21T20:22:01;6.90;;;2.20;;
68608;SDS011;55581;46.718;7.690;2022-09-21T20:24:38;5.50;;;1.70;;